Terminal Aerodrome Forecast
Issued by NWS Portland, OR

Home | Current Version | Previous Version | Text Only | Print | Product List | Glossary On
Versions: 1 2 3 4 5 6 7 8 9 10 11 12 13 14 15 16
000
FTUS46 KPQR 271322 AAA
TAFSLE
TAF AMD
KSLE 271322Z 2713/2812 35006KT P6SM BKN025
     FM271700 36006KT P6SM SCT025 OVC035
     FM272000 36007KT P6SM BKN045
     FM272100 36010KT P6SM FEW050
     FM280400 33006KT P6SM SKC=

USA.gov is the U.S. government's official web portal to all federal, state and local government web resources and services.